createdAt,value
2018-06-14T00:00:37.283Z,22.50
2018-06-14T00:03:12.492Z,22.60
2018-06-14T00:05:47.532Z,22.60
2018-06-14T00:08:22.608Z,22.50
2018-06-14T00:10:59.152Z,22.50
2018-06-14T00:13:34.111Z,22.50
2018-06-14T00:16:09.063Z,22.50
2018-06-14T00:18:44.184Z,22.50
2018-06-14T00:21:19.248Z,22.50
2018-06-14T00:23:54.351Z,22.50
2018-06-14T00:26:29.300Z,22.50
2018-06-14T00:29:04.479Z,22.50
2018-06-14T00:31:39.540Z,22.50
2018-06-14T00:34:14.582Z,22.50
2018-06-14T00:36:49.504Z,22.50
2018-06-14T00:39:24.552Z,22.50
2018-06-14T00:42:00.427Z,22.50
2018-06-14T00:44:35.331Z,22.50
2018-06-14T00:47:10.373Z,22.50
2018-06-14T00:49:45.412Z,22.50
2018-06-14T00:52:20.504Z,22.50
2018-06-14T00:54:55.555Z,22.50
2018-06-14T00:57:31.676Z,22.50
2018-06-14T01:00:06.603Z,22.40
2018-06-14T01:02:41.531Z,22.50
2018-06-14T01:05:16.563Z,22.50
2018-06-14T01:07:51.604Z,22.50
2018-06-14T01:10:26.543Z,22.50
2018-06-14T01:13:01.471Z,22.40
2018-06-14T01:15:36.549Z,22.40
2018-06-14T01:18:11.625Z,22.40
2018-06-14T01:20:46.596Z,22.40
2018-06-14T01:23:21.532Z,22.40
2018-06-14T01:25:56.564Z,22.40
2018-06-14T01:28:31.615Z,22.40
2018-06-14T01:31:06.664Z,22.40
2018-06-14T01:33:41.591Z,22.40
2018-06-14T01:36:16.501Z,22.40
2018-06-14T01:38:51.537Z,22.40
2018-06-14T01:41:26.446Z,22.40
2018-06-14T01:44:01.502Z,22.40
2018-06-14T01:46:36.509Z,22.40
2018-06-14T01:49:11.544Z,22.40
2018-06-14T01:51:46.459Z,22.40
2018-06-14T01:54:21.376Z,22.40
2018-06-14T01:56:56.410Z,22.40
2018-06-14T01:59:31.468Z,22.40
2018-06-14T02:02:06.363Z,22.40
2018-06-14T02:04:41.456Z,22.40
2018-06-14T02:07:16.675Z,22.40
2018-06-14T02:09:51.723Z,22.40
2018-06-14T02:12:26.761Z,22.40
2018-06-14T02:15:02.080Z,22.40
2018-06-14T02:17:36.995Z,22.40
2018-06-14T02:20:11.920Z,22.40
2018-06-14T02:22:46.944Z,22.30
2018-06-14T02:25:22.004Z,22.30
2018-06-14T02:27:57.038Z,22.30
2018-06-14T02:30:32.048Z,22.30
2018-06-14T02:33:07.076Z,22.30
2018-06-14T02:35:42.124Z,22.30
2018-06-14T02:38:19.430Z,22.30
2018-06-14T02:40:54.569Z,22.20
2018-06-14T02:43:29.486Z,22.20
2018-06-14T02:46:04.705Z,22.10
2018-06-14T02:48:39.621Z,22.00
2018-06-14T02:51:14.668Z,22.10
2018-06-14T02:53:49.703Z,22.20
2018-06-14T02:56:24.628Z,22.20
2018-06-14T02:58:59.564Z,22.00
2018-06-14T03:01:34.653Z,21.90
2018-06-14T03:04:09.588Z,21.60
2018-06-14T03:06:44.649Z,21.70
2018-06-14T03:09:19.675Z,21.90
2018-06-14T03:11:54.596Z,22.00
2018-06-14T03:14:29.655Z,22.10
2018-06-14T03:17:04.600Z,22.10
2018-06-14T03:19:39.532Z,22.10
2018-06-14T03:22:14.624Z,22.00
2018-06-14T03:24:49.827Z,22.00
2018-06-14T03:27:24.892Z,21.70
2018-06-14T03:29:59.936Z,21.50
2018-06-14T03:32:34.869Z,21.20
2018-06-14T03:35:09.941Z,20.90
2018-06-14T03:37:44.979Z,21.10
2018-06-14T03:40:19.911Z,21.30
2018-06-14T03:42:54.968Z,21.00
2018-06-14T03:45:30.451Z,21.20
2018-06-14T03:48:05.384Z,21.10
2018-06-14T03:50:41.412Z,18.90
2018-06-14T03:53:16.452Z,16.00
2018-06-14T03:55:51.500Z,14.70
2018-06-14T03:58:26.467Z,14.00
2018-06-14T04:01:01.449Z,13.70
2018-06-14T04:03:36.494Z,13.90
2018-06-14T04:06:11.524Z,13.70
2018-06-14T04:08:46.540Z,13.40
2018-06-14T04:11:21.636Z,13.30
2018-06-14T04:13:56.683Z,13.30
2018-06-14T04:16:31.740Z,12.90
2018-06-14T04:19:07.275Z,13.00
2018-06-14T04:21:42.360Z,13.30
2018-06-14T04:24:17.303Z,13.10
2018-06-14T04:26:52.351Z,13.20
2018-06-14T04:29:27.280Z,13.50
2018-06-14T04:32:02.337Z,14.00
2018-06-14T04:34:37.264Z,14.50
2018-06-14T04:37:12.300Z,14.70
2018-06-14T04:39:48.005Z,14.90
2018-06-14T04:42:22.940Z,15.30
2018-06-14T04:44:57.984Z,15.00
2018-06-14T04:47:32.900Z,15.50
2018-06-14T04:50:07.959Z,15.30
2018-06-14T04:52:42.888Z,15.40
2018-06-14T04:55:17.936Z,15.70
2018-06-14T04:57:52.990Z,16.10
2018-06-14T05:00:28.020Z,17.00
2018-06-14T05:03:03.137Z,17.40
2018-06-14T05:05:38.200Z,17.20
2018-06-14T05:08:17.640Z,17.20
2018-06-14T05:10:53.576Z,17.20
2018-06-14T05:13:28.612Z,17.00
2018-06-14T05:16:03.773Z,16.80
2018-06-14T05:18:38.693Z,16.70
2018-06-14T05:21:13.600Z,16.30
2018-06-14T05:23:48.694Z,16.00
2018-06-14T05:26:23.728Z,16.00
2018-06-14T05:28:59.350Z,15.80
2018-06-14T05:31:34.280Z,15.40
2018-06-14T05:34:09.205Z,15.50
2018-06-14T05:36:44.284Z,15.30
2018-06-14T05:39:19.404Z,15.40
2018-06-14T05:41:54.585Z,15.40
2018-06-14T05:44:29.651Z,15.40
2018-06-14T05:47:04.704Z,15.60
2018-06-14T05:49:39.827Z,15.40
2018-06-14T05:52:15.029Z,15.50
2018-06-14T05:54:50.037Z,15.90
2018-06-14T05:57:25.225Z,15.70
2018-06-14T06:00:00.307Z,15.80
2018-06-14T06:02:35.444Z,16.00
2018-06-14T06:05:10.597Z,15.80
2018-06-14T06:07:45.773Z,15.90
2018-06-14T06:10:20.737Z,15.80
2018-06-14T06:12:55.736Z,16.20
2018-06-14T06:15:30.775Z,16.10
2018-06-14T06:18:05.924Z,16.00
2018-06-14T06:20:41.055Z,16.20
2018-06-14T06:23:16.096Z,16.30
2018-06-14T06:25:51.286Z,16.20
2018-06-14T06:28:26.416Z,16.10
2018-06-14T06:31:01.525Z,16.00
2018-06-14T06:33:36.436Z,15.60
2018-06-14T06:36:11.576Z,15.70
2018-06-14T06:38:46.682Z,15.90
2018-06-14T06:41:21.708Z,16.10
2018-06-14T06:43:56.656Z,16.70
2018-06-14T06:46:31.669Z,17.00
2018-06-14T06:49:06.588Z,16.80
2018-06-14T06:51:41.652Z,16.70
2018-06-14T06:54:16.564Z,17.00
2018-06-14T06:56:51.644Z,16.90
2018-06-14T06:59:26.764Z,17.20
2018-06-14T07:02:01.885Z,17.30
2018-06-14T07:04:36.992Z,17.30
2018-06-14T07:07:12.080Z,17.10
2018-06-14T07:09:47.191Z,17.20
2018-06-14T07:12:22.248Z,17.10
2018-06-14T07:14:57.312Z,17.20
2018-06-14T07:17:32.347Z,17.40
2018-06-14T07:20:07.276Z,17.20
2018-06-14T07:22:42.311Z,17.50
2018-06-14T07:25:17.244Z,17.50
2018-06-14T07:27:52.279Z,17.80
2018-06-14T07:30:27.387Z,17.90
2018-06-14T07:33:02.560Z,18.00
2018-06-14T07:35:37.648Z,18.10
2018-06-14T07:38:12.635Z,17.90
2018-06-14T07:40:47.531Z,18.00
2018-06-14T07:43:22.597Z,18.30
2018-06-14T07:45:57.655Z,18.30
2018-06-14T07:48:32.605Z,18.30
2018-06-14T07:51:07.595Z,18.40
2018-06-14T07:53:42.512Z,18.30
2018-06-14T07:56:17.580Z,18.40
2018-06-14T07:58:52.536Z,18.60
2018-06-14T08:01:27.593Z,18.90
2018-06-14T08:04:02.700Z,19.40
2018-06-14T08:06:38.180Z,20.10
2018-06-14T08:09:13.244Z,20.20
2018-06-14T08:11:48.156Z,20.60
2018-06-14T08:14:23.192Z,20.50
2018-06-14T08:16:58.139Z,21.00
2018-06-14T08:19:33.172Z,21.00
2018-06-14T08:22:08.100Z,21.00
2018-06-14T08:24:43.031Z,21.50
2018-06-14T08:27:18.004Z,21.60
2018-06-14T08:29:52.934Z,21.70
2018-06-14T08:32:27.861Z,21.60
2018-06-14T08:35:02.824Z,21.70
2018-06-14T08:37:37.774Z,21.60
2018-06-14T08:40:12.797Z,21.80
2018-06-14T08:42:47.843Z,22.00
2018-06-14T08:45:22.940Z,22.00
2018-06-14T08:47:57.859Z,21.70
2018-06-14T08:50:33.015Z,21.40
2018-06-14T08:53:07.948Z,21.30
2018-06-14T08:55:43.010Z,21.20
2018-06-14T09:01:27.887Z,21.50
2018-06-14T09:04:02.953Z,21.50
2018-06-14T09:06:38.052Z,22.30
2018-06-14T09:09:13.204Z,22.50
2018-06-14T09:11:48.200Z,22.40
2018-06-14T09:14:23.361Z,22.40
2018-06-14T09:16:58.934Z,22.60
2018-06-14T09:19:33.961Z,22.10
2018-06-14T09:22:09.092Z,21.80
2018-06-14T09:24:44.088Z,22.00
2018-06-14T09:27:19.037Z,21.90
2018-06-14T09:29:54.043Z,21.70
2018-06-14T09:32:29.056Z,21.70
2018-06-14T09:35:04.114Z,21.70
2018-06-14T09:37:39.048Z,22.30
2018-06-14T09:40:14.080Z,22.40
2018-06-14T09:42:49.208Z,22.40
2018-06-14T09:45:24.200Z,21.90
2018-06-14T09:47:59.228Z,21.50
2018-06-14T09:50:34.259Z,21.90
2018-06-14T09:53:09.352Z,22.30
2018-06-14T09:55:44.419Z,21.60
2018-06-14T09:58:19.471Z,21.50
2018-06-14T10:00:54.393Z,21.50
2018-06-14T10:03:29.423Z,21.80
2018-06-14T10:06:04.527Z,21.10
2018-06-14T10:08:39.564Z,21.50
2018-06-14T10:11:14.626Z,22.10
2018-06-14T10:13:49.535Z,21.90
2018-06-14T10:16:24.795Z,22.00
2018-06-14T10:18:59.708Z,21.40
2018-06-14T10:21:34.732Z,21.40
2018-06-14T10:24:09.863Z,21.60
2018-06-14T10:26:44.820Z,21.90
2018-06-14T10:29:20.031Z,22.20
2018-06-14T10:31:55.064Z,22.00
2018-06-14T10:34:30.162Z,21.60
2018-06-14T10:37:05.152Z,21.70
2018-06-14T10:39:40.243Z,22.10
2018-06-14T10:42:15.441Z,22.20
2018-06-14T10:44:50.383Z,21.60
2018-06-14T10:47:25.448Z,22.00
2018-06-14T10:50:00.898Z,22.40
2018-06-14T10:52:35.892Z,22.60
2018-06-14T10:55:10.908Z,22.70
2018-06-14T10:57:46.052Z,22.50
2018-06-14T11:00:21.132Z,22.60
2018-06-14T11:02:56.048Z,22.00
2018-06-14T11:05:31.128Z,22.20
2018-06-14T11:08:06.064Z,22.10
2018-06-14T11:10:41.100Z,22.50
2018-06-14T11:13:16.098Z,22.80
2018-06-14T11:15:51.053Z,22.80
2018-06-14T11:18:26.108Z,22.70
2018-06-14T11:21:01.018Z,22.60
2018-06-14T11:23:36.068Z,22.90
2018-06-14T11:26:11.100Z,22.80
2018-06-14T11:28:46.160Z,22.50
2018-06-14T11:31:21.075Z,22.10
2018-06-14T11:33:56.123Z,22.40
2018-06-14T11:36:31.552Z,22.50
2018-06-14T11:39:07.308Z,22.50
2018-06-14T11:41:42.234Z,22.70
2018-06-14T11:44:17.292Z,22.90
2018-06-14T11:46:55.374Z,22.90
2018-06-14T11:49:30.412Z,22.80
2018-06-14T11:52:05.447Z,22.80
2018-06-14T11:54:40.366Z,22.40
2018-06-14T11:57:15.410Z,22.30
2018-06-14T11:59:51.716Z,22.50
2018-06-14T12:02:26.800Z,22.60
2018-06-14T12:05:01.873Z,22.70
2018-06-14T12:07:36.915Z,23.00
2018-06-14T12:10:11.836Z,23.20
2018-06-14T12:12:46.764Z,22.80
2018-06-14T12:15:21.836Z,22.60
2018-06-14T12:17:56.905Z,22.60
2018-06-14T12:20:31.819Z,22.60
2018-06-14T12:23:06.872Z,22.40
2018-06-14T12:25:41.808Z,21.80
2018-06-14T12:28:16.839Z,21.70
2018-06-14T12:30:51.952Z,21.90
2018-06-14T12:33:27.024Z,22.30
2018-06-14T12:36:02.098Z,22.70
2018-06-14T12:38:37.064Z,22.60
2018-06-14T12:41:11.964Z,22.50
2018-06-14T12:43:47.012Z,22.10
2018-06-14T12:46:22.064Z,22.20
2018-06-14T12:48:57.110Z,22.40
2018-06-14T12:51:32.104Z,22.30
2018-06-14T12:54:07.028Z,22.10
2018-06-14T12:56:42.119Z,22.40
2018-06-14T12:59:17.174Z,22.20
2018-06-14T13:01:52.235Z,22.50
2018-06-14T13:04:27.304Z,22.70
2018-06-14T13:07:02.234Z,22.80
2018-06-14T13:09:37.156Z,23.00
2018-06-14T13:12:12.218Z,22.90
2018-06-14T13:14:47.282Z,23.20
2018-06-14T13:17:22.372Z,23.30
2018-06-14T13:19:57.423Z,23.10
2018-06-14T13:22:32.468Z,23.30
2018-06-14T13:25:07.525Z,22.50
2018-06-14T13:27:42.628Z,22.80
2018-06-14T13:30:17.675Z,22.60
2018-06-14T13:32:53.368Z,22.70
2018-06-14T13:35:28.410Z,22.50
2018-06-14T13:38:03.529Z,22.70
2018-06-14T13:40:38.637Z,22.70
2018-06-14T13:43:13.612Z,22.90
2018-06-14T13:45:48.694Z,22.80
2018-06-14T13:48:23.763Z,22.90
2018-06-14T13:50:58.802Z,23.00
2018-06-14T13:53:33.724Z,22.90
2018-06-14T13:56:08.784Z,23.00
2018-06-14T13:58:43.698Z,22.60
2018-06-14T14:01:18.752Z,22.70
2018-06-14T14:03:53.968Z,22.40
2018-06-14T14:06:29.212Z,22.20
2018-06-14T14:09:06.308Z,22.70
2018-06-14T14:11:41.721Z,22.60
2018-06-14T14:14:16.678Z,22.20
2018-06-14T14:16:51.736Z,22.30
2018-06-14T14:19:26.703Z,22.40
2018-06-14T14:22:01.607Z,22.40
2018-06-14T14:24:36.545Z,22.70
2018-06-14T14:27:11.614Z,22.50
2018-06-14T14:29:46.672Z,22.10
2018-06-14T14:32:21.711Z,22.20
2018-06-14T14:34:56.636Z,22.10
2018-06-14T14:37:31.688Z,21.90
2018-06-14T14:40:06.604Z,21.90
2018-06-14T14:42:41.664Z,22.20
2018-06-14T14:45:16.564Z,22.30
2018-06-14T14:47:51.609Z,21.90
2018-06-14T14:50:26.523Z,22.10
2018-06-14T14:53:01.605Z,22.00
2018-06-14T14:55:36.641Z,21.90
2018-06-14T14:58:11.575Z,22.00
2018-06-14T15:00:46.616Z,21.70
2018-06-14T15:03:21.697Z,22.00
2018-06-14T15:05:56.596Z,21.90
2018-06-14T15:08:31.549Z,21.50
2018-06-14T15:11:06.456Z,21.50
2018-06-14T15:13:41.513Z,21.50
2018-06-14T15:16:16.579Z,21.40
2018-06-14T15:18:51.533Z,21.40
2018-06-14T15:21:26.629Z,21.20
2018-06-14T15:24:01.706Z,21.20
2018-06-14T15:26:36.633Z,21.00
2018-06-14T15:29:11.672Z,20.50
2018-06-14T15:31:46.728Z,20.60
2018-06-14T15:34:21.666Z,20.70
2018-06-14T15:36:56.743Z,20.50
2018-06-14T15:39:31.816Z,20.00
2018-06-14T15:42:06.866Z,20.00
2018-06-14T15:44:41.804Z,20.00
2018-06-14T15:47:16.759Z,20.40
2018-06-14T15:49:51.823Z,20.50
2018-06-14T15:52:26.756Z,20.40
2018-06-14T15:55:13.124Z,20.30
2018-06-14T15:57:48.168Z,20.10
2018-06-14T16:00:23.229Z,20.10
2018-06-14T16:02:58.290Z,19.90
2018-06-14T16:05:33.425Z,20.00
2018-06-14T16:08:08.427Z,20.00
2018-06-14T16:10:43.559Z,19.70
2018-06-14T16:13:18.997Z,19.80
2018-06-14T16:15:54.137Z,20.00
2018-06-14T16:18:29.191Z,19.20
2018-06-14T16:21:04.116Z,19.10
2018-06-14T16:23:39.160Z,19.30
2018-06-14T16:26:14.152Z,19.30
2018-06-14T16:28:49.267Z,19.60
2018-06-14T16:31:24.329Z,19.70
2018-06-14T16:33:59.276Z,19.70
2018-06-14T16:36:34.352Z,19.30
2018-06-14T16:39:09.657Z,19.20
2018-06-14T16:41:44.673Z,19.40
2018-06-14T16:44:19.775Z,19.30
2018-06-14T16:49:29.504Z,19.00
2018-06-14T16:52:04.787Z,19.00
2018-06-14T16:54:39.856Z,18.50
2018-06-14T16:57:14.835Z,18.40
2018-06-14T16:59:49.928Z,17.60
2018-06-14T17:02:25.100Z,17.90
2018-06-14T17:05:00.189Z,18.20
2018-06-14T17:07:35.150Z,17.90
2018-06-14T17:10:10.288Z,18.30
2018-06-14T17:12:45.422Z,18.30
2018-06-14T17:15:20.854Z,18.40
2018-06-14T17:17:55.804Z,18.40
2018-06-14T17:20:30.986Z,18.10
2018-06-14T17:23:06.344Z,17.90
2018-06-14T17:25:41.556Z,17.60
2018-06-14T17:28:16.644Z,17.60
2018-06-14T17:30:51.720Z,17.70
2018-06-14T17:33:26.847Z,17.90
2018-06-14T17:36:02.380Z,17.70
2018-06-14T17:38:37.645Z,17.80
2018-06-14T17:41:12.680Z,17.90
2018-06-14T17:43:47.687Z,17.90
2018-06-14T17:46:22.841Z,17.60
2018-06-14T17:48:57.745Z,17.20
2018-06-14T17:51:33.107Z,17.30
2018-06-14T17:54:08.256Z,17.70
2018-06-14T17:56:47.110Z,17.90
2018-06-14T17:59:22.118Z,17.80
2018-06-14T18:01:57.404Z,17.80
2018-06-14T18:07:06.986Z,17.50
2018-06-14T18:09:42.089Z,17.70
2018-06-14T18:12:17.176Z,18.00
2018-06-14T18:14:52.233Z,17.40
2018-06-14T18:17:27.192Z,17.30
2018-06-14T18:20:02.372Z,17.40
2018-06-14T18:22:37.467Z,17.40
2018-06-14T18:25:12.750Z,17.30
2018-06-14T18:27:47.716Z,17.30
2018-06-14T18:30:22.712Z,17.70
2018-06-14T18:35:32.703Z,17.90
2018-06-14T18:38:07.810Z,17.70
2018-06-14T18:40:42.879Z,18.00
2018-06-14T18:43:17.856Z,17.60
2018-06-14T18:45:53.084Z,17.70
2018-06-14T18:48:28.025Z,17.60
2018-06-14T18:51:02.985Z,17.70
2018-06-14T18:53:37.992Z,17.80
2018-06-14T18:56:14.257Z,17.40
2018-06-14T18:58:49.427Z,17.60
2018-06-14T19:01:24.825Z,17.80
2018-06-14T19:03:59.837Z,17.60
2018-06-14T19:06:35.067Z,17.90
2018-06-14T19:09:10.806Z,17.70
2018-06-14T19:11:45.799Z,17.80
2018-06-14T19:14:21.233Z,17.60
2018-06-14T19:16:56.370Z,17.40
2018-06-14T19:19:31.550Z,17.50
2018-06-14T19:22:06.581Z,17.50
2018-06-14T19:24:41.697Z,17.40
2018-06-14T19:27:16.855Z,17.40
2018-06-14T19:29:52.080Z,17.50
2018-06-14T19:32:27.107Z,17.50
2018-06-14T19:35:02.146Z,18.50
2018-06-14T19:37:37.115Z,19.60
2018-06-14T19:40:12.239Z,20.20
2018-06-14T19:42:47.364Z,20.60
2018-06-14T19:45:22.519Z,20.70
2018-06-14T19:47:57.497Z,21.00
2018-06-14T19:50:32.647Z,21.20
2018-06-14T19:53:07.751Z,21.30
2018-06-14T19:55:42.741Z,21.50
2018-06-14T19:58:17.764Z,21.60
2018-06-14T20:00:52.740Z,21.70
2018-06-14T20:03:27.743Z,21.80
2018-06-14T20:06:02.997Z,21.90
2018-06-14T20:08:38.097Z,22.00
2018-06-14T20:11:13.108Z,22.10
2018-06-14T20:13:48.220Z,22.10
2018-06-14T20:16:24.023Z,22.20
2018-06-14T20:18:59.012Z,22.20
2018-06-14T20:21:34.228Z,22.30
2018-06-14T20:24:09.272Z,22.30
2018-06-14T20:26:44.417Z,22.30
2018-06-14T20:29:19.583Z,22.30
2018-06-14T20:31:54.660Z,22.40
2018-06-14T20:34:29.821Z,22.40
2018-06-14T20:37:04.865Z,22.50
2018-06-14T20:39:39.868Z,22.40
2018-06-14T20:42:15.059Z,22.50
2018-06-14T20:44:50.276Z,22.60
2018-06-14T20:47:25.414Z,22.60
2018-06-14T20:50:00.465Z,22.70
2018-06-14T20:52:35.454Z,22.60
2018-06-14T20:57:45.285Z,22.70
2018-06-14T21:00:20.422Z,22.70
2018-06-14T21:02:55.694Z,22.80
2018-06-14T21:05:30.794Z,22.80
2018-06-14T21:08:05.981Z,22.80
2018-06-14T21:10:41.186Z,22.80
2018-06-14T21:13:16.317Z,22.80
2018-06-14T21:15:51.410Z,22.80
2018-06-14T21:18:26.518Z,22.80
2018-06-14T21:21:01.706Z,22.90
2018-06-14T21:23:36.747Z,22.90
2018-06-14T21:26:11.719Z,22.90
2018-06-14T21:28:46.684Z,22.90
2018-06-14T21:31:21.796Z,22.90
2018-06-14T21:33:56.956Z,22.90
2018-06-14T21:36:32.132Z,22.90
2018-06-14T21:39:07.864Z,22.90
2018-06-14T21:41:43.071Z,22.90
2018-06-14T21:44:18.220Z,22.90
2018-06-14T21:46:53.227Z,22.90
2018-06-14T21:49:28.233Z,22.90
2018-06-14T21:52:03.288Z,22.90
2018-06-14T21:54:38.368Z,22.90
2018-06-14T21:57:13.547Z,22.90
2018-06-14T21:59:48.537Z,22.90
2018-06-14T22:02:23.731Z,23.00
2018-06-14T22:04:58.921Z,22.90
2018-06-14T22:07:34.022Z,22.90
2018-06-14T22:10:09.179Z,22.80
2018-06-14T22:12:44.271Z,22.90
2018-06-14T22:15:19.240Z,22.90
2018-06-14T22:17:54.195Z,22.90
2018-06-14T22:20:29.319Z,23.00
2018-06-14T22:23:04.344Z,23.00
2018-06-14T22:25:39.365Z,22.90
2018-06-14T22:28:14.508Z,23.00
2018-06-14T22:30:49.640Z,23.00
2018-06-14T22:33:35.965Z,23.00
2018-06-14T22:36:10.973Z,23.00
2018-06-14T22:38:46.128Z,22.90
2018-06-14T22:41:21.099Z,23.00
2018-06-14T22:43:56.114Z,22.90
2018-06-14T22:46:31.165Z,23.00
2018-06-14T22:49:06.326Z,23.00
2018-06-14T22:53:48.062Z,23.00
2018-06-14T22:56:23.149Z,23.00
2018-06-14T22:58:58.108Z,22.90
2018-06-14T23:01:41.613Z,22.90
2018-06-14T23:04:18.021Z,22.80
2018-06-14T23:06:53.251Z,22.90
2018-06-14T23:10:38.335Z,22.90
2018-06-14T23:13:17.581Z,22.90
2018-06-14T23:15:52.654Z,22.90
2018-06-14T23:18:27.761Z,22.90
2018-06-14T23:21:02.850Z,23.00
2018-06-14T23:23:37.998Z,23.00
2018-06-14T23:26:13.012Z,23.00
2018-06-14T23:28:48.111Z,23.00
2018-06-14T23:31:23.082Z,23.00
2018-06-14T23:33:58.261Z,22.90
2018-06-14T23:36:33.333Z,23.00
2018-06-14T23:39:08.612Z,23.00
2018-06-14T23:41:43.698Z,23.00
2018-06-14T23:44:18.895Z,23.00
2018-06-14T23:46:53.923Z,23.00
2018-06-14T23:49:28.933Z,23.00
2018-06-14T23:52:03.965Z,22.90
2018-06-14T23:54:39.088Z,23.00
2018-06-14T23:57:14.188Z,23.00
2018-06-14T23:59:49.644Z,23.00
